Terminal Aerodrome Forecast
Issued by NWS

Home | Current Version | Previous Version | Text Only | Print | Product List | Glossary On
Versions: 1 2 3 4 5 6 7 8 9 10 11 12
497
FTUS42 TJSJ 110546
TAFJBQ
TAF
TJBQ 110546Z 1106/1206 00000KT P6SM SKC
     FM111300 08008KT P6SM FEW030 FEW050
     FM111800 06015KT P6SM VCSH SCT030 SCT050
     FM112300 10008KT P6SM FEW040
      AMD NOT SKED TIL 111100=

USA.gov is the U.S. government's official web portal to all federal, state and local government web resources and services.